createdAt,value
2018-05-16T00:00:57.800Z,17.70
2018-05-16T00:03:27.014Z,16.37
2018-05-16T00:05:56.206Z,15.57
2018-05-16T00:08:25.417Z,16.70
2018-05-16T00:10:54.598Z,16.70
2018-05-16T00:13:23.810Z,17.00
2018-05-16T00:15:53.018Z,15.93
2018-05-16T00:18:22.256Z,15.17
2018-05-16T00:20:51.458Z,15.87
2018-05-16T00:23:20.664Z,16.67
2018-05-16T00:25:49.871Z,15.20
2018-05-16T00:28:19.080Z,15.67
2018-05-16T00:30:48.272Z,14.10
2018-05-16T00:33:17.516Z,13.43
2018-05-16T00:35:46.716Z,14.20
2018-05-16T00:38:15.952Z,15.37
2018-05-16T00:40:45.171Z,14.37
2018-05-16T00:43:14.388Z,14.60
2018-05-16T00:45:43.681Z,14.93
2018-05-16T00:48:12.880Z,16.10
2018-05-16T00:50:58.779Z,13.00
2018-05-16T00:53:27.993Z,13.50
2018-05-16T00:55:57.210Z,17.27
2018-05-16T00:58:26.912Z,17.53
2018-05-16T02:39:07.475Z,17.13
2018-05-16T02:41:36.687Z,19.60
2018-05-16T02:44:05.902Z,18.60
2018-05-16T02:46:35.104Z,19.87
2018-05-16T02:49:04.350Z,20.53
2018-05-16T02:51:33.567Z,21.50
2018-05-16T02:54:02.795Z,20.30
2018-05-16T02:56:32.025Z,22.90
2018-05-16T02:59:01.245Z,20.23
2018-05-16T03:01:30.490Z,18.37
2018-05-16T03:03:59.698Z,18.43
2018-05-16T03:06:28.938Z,17.53
2018-05-16T03:08:58.141Z,19.60
2018-05-16T03:11:27.377Z,17.40
2018-05-16T03:13:56.579Z,20.23
2018-05-16T03:16:25.818Z,22.47
2018-05-16T03:18:55.005Z,20.10
2018-05-16T03:21:24.239Z,21.40
2018-05-16T03:23:53.436Z,18.97
2018-05-16T03:26:22.685Z,20.97
2018-05-16T03:28:51.906Z,19.53
2018-05-16T03:31:21.099Z,20.80
2018-05-16T03:33:50.310Z,22.07
2018-05-16T03:36:19.521Z,21.43
2018-05-16T03:38:48.738Z,23.10
2018-05-16T03:41:17.927Z,20.73
2018-05-16T03:43:47.169Z,21.50
2018-05-16T03:46:16.388Z,27.83
2018-05-16T03:48:45.639Z,23.93
2018-05-16T03:51:14.834Z,20.80
2018-05-16T03:53:44.062Z,18.90
2018-05-16T03:56:14.003Z,19.10
2018-05-16T03:58:49.190Z,20.60
2018-05-16T04:01:24.367Z,19.53
2018-05-16T04:03:58.375Z,21.33
2018-05-16T04:06:28.144Z,23.17
2018-05-16T04:08:57.370Z,19.93
2018-05-16T04:11:26.612Z,22.23
2018-05-16T04:13:55.938Z,21.53
2018-05-16T04:16:25.162Z,20.80
2018-05-16T04:18:54.354Z,20.00
2018-05-16T04:21:23.586Z,19.23
2018-05-16T04:23:52.784Z,18.13
2018-05-16T04:26:22.013Z,18.50
2018-05-16T04:28:51.261Z,17.53
2018-05-16T04:31:20.489Z,18.77
2018-05-16T04:33:49.705Z,17.97
2018-05-16T04:36:19.014Z,18.17
2018-05-16T04:38:48.204Z,22.47
2018-05-16T04:41:17.430Z,19.77
2018-05-16T04:43:46.619Z,18.80
2018-05-16T04:46:15.834Z,17.73
2018-05-16T04:48:45.108Z,17.67
2018-05-16T04:51:14.262Z,18.10
2018-05-16T04:53:43.501Z,20.10
2018-05-16T04:56:12.706Z,18.10
2018-05-16T04:58:41.935Z,18.90
2018-05-16T05:01:11.191Z,19.33
2018-05-16T05:03:40.403Z,21.60
2018-05-16T05:06:09.591Z,18.37
2018-05-16T05:08:38.884Z,17.57
2018-05-16T05:11:08.093Z,19.60
2018-05-16T05:13:37.309Z,19.07
2018-05-16T05:16:06.510Z,19.97
2018-05-16T05:18:35.907Z,18.40
2018-05-16T05:21:04.989Z,18.87
2018-05-16T05:23:34.226Z,17.30
2018-05-16T05:26:03.555Z,17.13
2018-05-16T05:28:32.784Z,18.00
2018-05-16T05:31:01.973Z,15.57
2018-05-16T05:33:31.203Z,16.03
2018-05-16T05:36:00.415Z,17.40
2018-05-16T05:38:29.614Z,15.63
2018-05-16T05:40:58.835Z,15.00
2018-05-16T05:43:28.243Z,16.47
2018-05-16T05:45:57.256Z,16.07
2018-05-16T05:48:26.439Z,15.80
2018-05-16T05:50:55.648Z,14.20
2018-05-16T05:53:24.827Z,14.20
2018-05-16T05:55:54.062Z,12.87
2018-05-16T05:58:23.255Z,11.50
2018-05-16T06:00:52.487Z,11.80
2018-05-16T06:03:21.694Z,10.67
2018-05-16T06:05:50.998Z,12.20
2018-05-16T06:08:20.195Z,11.43
2018-05-16T06:10:49.414Z,11.10
2018-05-16T06:13:18.610Z,12.13
2018-05-16T06:15:47.855Z,11.57
2018-05-16T06:18:17.044Z,11.47
2018-05-16T06:20:46.283Z,12.30
2018-05-16T06:23:15.546Z,11.67
2018-05-16T06:25:44.766Z,10.77
2018-05-16T06:28:13.963Z,11.60
2018-05-16T06:30:43.164Z,9.73
2018-05-16T06:33:12.393Z,10.90
2018-05-16T06:35:41.611Z,10.33
2018-05-16T06:38:10.940Z,10.70
2018-05-16T06:40:40.143Z,10.90
2018-05-16T06:43:09.469Z,10.23
2018-05-16T06:45:38.662Z,10.13
2018-05-16T06:48:07.859Z,11.00
2018-05-16T06:50:37.121Z,10.00
2018-05-16T06:53:06.297Z,10.13
2018-05-16T06:55:35.497Z,9.83
2018-05-16T06:58:04.800Z,9.47
2018-05-16T07:00:33.988Z,8.20
2018-05-16T07:03:03.216Z,9.00
2018-05-16T07:05:32.501Z,9.23
2018-05-16T07:08:01.716Z,9.93
2018-05-16T07:10:30.890Z,8.77
2018-05-16T07:13:00.104Z,7.63
2018-05-16T07:15:29.302Z,7.70
2018-05-16T07:17:58.516Z,6.17
2018-05-16T07:20:27.788Z,6.73
2018-05-16T07:22:57.035Z,7.20
2018-05-16T07:25:26.320Z,7.20
2018-05-16T07:27:55.546Z,6.20
2018-05-16T07:30:24.723Z,6.10
2018-05-16T07:32:53.927Z,6.73
2018-05-16T07:35:23.133Z,5.80
2018-05-16T07:37:52.323Z,6.60
2018-05-16T07:40:21.542Z,5.73
2018-05-16T07:42:50.719Z,5.57
2018-05-16T07:45:19.941Z,5.00
2018-05-16T07:47:49.174Z,6.07
2018-05-16T07:50:18.534Z,5.10
2018-05-16T07:52:47.719Z,6.00
2018-05-16T07:55:16.950Z,5.67
2018-05-16T07:57:46.136Z,5.63
2018-05-16T08:00:15.337Z,4.77
2018-05-16T08:02:44.524Z,5.30
2018-05-16T08:05:13.751Z,5.57
2018-05-16T08:07:42.943Z,5.77
2018-05-16T08:10:12.156Z,6.10
2018-05-16T08:12:41.354Z,5.33
2018-05-16T08:15:10.544Z,5.57
2018-05-16T08:17:39.810Z,6.53
2018-05-16T08:20:08.995Z,6.03
2018-05-16T08:22:38.203Z,6.47
2018-05-16T08:25:07.401Z,6.70
2018-05-16T08:27:36.624Z,7.57
2018-05-16T08:30:05.844Z,6.97
2018-05-16T08:32:35.052Z,7.10
2018-05-16T08:35:04.236Z,6.03
2018-05-16T08:37:33.608Z,6.80
2018-05-16T08:40:02.793Z,5.73
2018-05-16T08:42:32.007Z,5.70
2018-05-16T08:45:01.196Z,5.60
2018-05-16T08:47:30.461Z,5.40
2018-05-16T08:49:59.606Z,4.30
2018-05-16T08:52:28.849Z,4.50
2018-05-16T08:54:58.064Z,3.67
2018-05-16T08:57:27.243Z,3.80
2018-05-16T08:59:56.450Z,2.93
2018-05-16T09:02:25.628Z,3.10
2018-05-16T09:04:54.836Z,2.63
2018-05-16T09:07:24.034Z,2.90
2018-05-16T09:09:53.238Z,3.13
2018-05-16T09:12:22.423Z,3.10
2018-05-16T09:14:51.628Z,3.00
2018-05-16T09:17:20.933Z,2.97
2018-05-16T09:19:50.090Z,3.00
2018-05-16T09:22:19.276Z,3.10
2018-05-16T09:24:48.475Z,2.77
2018-05-16T09:27:17.745Z,2.47
2018-05-16T09:29:47.053Z,3.00
2018-05-16T09:32:16.305Z,3.10
2018-05-16T09:34:45.505Z,3.20
2018-05-16T09:37:14.708Z,3.13
2018-05-16T09:39:43.925Z,2.73
2018-05-16T09:42:13.131Z,3.63
2018-05-16T09:44:42.352Z,4.40
2018-05-16T09:47:11.556Z,3.53
2018-05-16T09:49:40.759Z,4.47
2018-05-16T09:52:10.031Z,3.97
2018-05-16T09:54:39.266Z,3.67
2018-05-16T09:57:08.445Z,4.00
2018-05-16T09:59:37.627Z,3.80
2018-05-16T10:02:06.856Z,3.53
2018-05-16T10:04:36.128Z,3.87
2018-05-16T10:07:05.347Z,3.67
2018-05-16T10:09:34.527Z,4.00
2018-05-16T10:12:03.827Z,4.00
2018-05-16T10:14:33.050Z,4.20
2018-05-16T10:17:02.346Z,3.70
2018-05-16T10:19:31.485Z,3.60
2018-05-16T10:22:00.696Z,4.30
2018-05-16T10:24:29.951Z,3.70
2018-05-16T10:26:59.155Z,3.97
2018-05-16T10:29:28.356Z,3.60
2018-05-16T10:31:57.571Z,3.73
2018-05-16T10:34:26.801Z,3.53
2018-05-16T10:36:56.030Z,3.17
2018-05-16T10:39:25.247Z,3.60
2018-05-16T10:41:54.469Z,3.80
2018-05-16T10:44:23.680Z,3.73
2018-05-16T10:46:52.868Z,4.13
2018-05-16T10:49:22.109Z,4.13
2018-05-16T10:51:51.291Z,4.20
2018-05-16T10:54:20.511Z,4.97
2018-05-16T10:56:49.693Z,4.80
2018-05-16T10:59:18.926Z,4.83
2018-05-16T11:01:48.113Z,5.23
2018-05-16T11:04:17.636Z,4.70
2018-05-16T11:06:46.834Z,5.30
2018-05-16T11:09:16.032Z,4.90
2018-05-16T11:11:45.225Z,5.13
2018-05-16T11:14:14.454Z,5.50
2018-05-16T11:16:43.634Z,5.80
2018-05-16T11:19:12.923Z,6.67
2018-05-16T11:21:42.123Z,5.20
2018-05-16T11:24:11.397Z,5.27
2018-05-16T11:26:40.609Z,6.90
2018-05-16T11:29:09.824Z,5.40
2018-05-16T11:31:39.123Z,5.00
2018-05-16T11:34:08.340Z,5.10
2018-05-16T11:36:37.571Z,5.40
2018-05-16T11:39:06.763Z,5.00
2018-05-16T11:41:36.032Z,3.90
2018-05-16T11:44:05.202Z,4.60
2018-05-16T11:46:34.427Z,3.90
2018-05-16T11:49:03.620Z,3.50
2018-05-16T11:51:32.820Z,3.40
2018-05-16T11:54:02.012Z,3.80
2018-05-16T11:56:31.268Z,3.30
2018-05-16T11:59:00.461Z,3.60
2018-05-16T12:01:29.805Z,4.17
2018-05-16T12:03:58.995Z,3.70
2018-05-16T12:06:28.214Z,4.20
2018-05-16T12:08:57.500Z,4.50
2018-05-16T12:11:26.722Z,4.43
2018-05-16T12:13:55.906Z,4.30
2018-05-16T12:16:25.143Z,4.13
2018-05-16T12:18:54.319Z,3.67
2018-05-16T12:21:23.532Z,3.83
2018-05-16T12:23:52.803Z,3.70
2018-05-16T12:26:22.001Z,3.20
2018-05-16T12:28:51.365Z,3.40
2018-05-16T12:31:21.133Z,3.20
2018-05-16T12:33:50.416Z,3.37
2018-05-16T12:36:19.626Z,3.50
2018-05-16T12:38:48.890Z,3.87
2018-05-16T12:41:18.201Z,3.83
2018-05-16T12:43:47.403Z,3.60
2018-05-16T12:46:16.623Z,4.60
2018-05-16T12:48:45.897Z,4.33
2018-05-16T12:51:15.106Z,4.23
2018-05-16T12:53:44.290Z,5.20
2018-05-16T12:56:13.737Z,4.40
2018-05-16T12:58:42.934Z,4.90
2018-05-16T13:01:12.142Z,5.87
2018-05-16T13:03:41.356Z,5.77
2018-05-16T13:06:10.570Z,5.53
2018-05-16T13:08:39.771Z,6.50
2018-05-16T13:11:09.051Z,6.37
2018-05-16T13:13:38.226Z,4.97
2018-05-16T13:16:07.452Z,5.07
2018-05-16T13:18:36.655Z,3.97
2018-05-16T13:21:05.838Z,5.30
2018-05-16T13:23:35.145Z,4.60
2018-05-16T13:26:04.360Z,5.10
2018-05-16T13:28:33.577Z,4.97
2018-05-16T13:31:02.796Z,4.20
2018-05-16T13:33:32.016Z,4.43
2018-05-16T13:36:01.197Z,4.10
2018-05-16T13:38:30.492Z,4.03
2018-05-16T13:40:59.737Z,3.20
2018-05-16T13:43:28.961Z,3.17
2018-05-16T13:45:58.180Z,3.43
2018-05-16T13:48:27.390Z,3.30
2018-05-16T13:50:56.576Z,5.27
2018-05-16T13:53:25.839Z,3.80
2018-05-16T13:55:55.019Z,3.83
2018-05-16T13:58:24.234Z,4.60
2018-05-16T14:00:53.416Z,3.87
2018-05-16T14:03:22.630Z,3.60
2018-05-16T14:05:51.962Z,3.43
2018-05-16T14:08:21.223Z,4.03
2018-05-16T14:10:50.424Z,3.90
2018-05-16T14:13:19.639Z,3.60
2018-05-16T14:15:48.823Z,3.50
2018-05-16T14:18:18.026Z,4.60
2018-05-16T14:20:47.215Z,3.97
2018-05-16T14:23:16.426Z,3.87
2018-05-16T14:25:45.653Z,4.20
2018-05-16T14:28:14.857Z,4.20
2018-05-16T14:30:44.029Z,4.43
2018-05-16T14:33:13.320Z,4.60
2018-05-16T14:35:42.541Z,4.27
2018-05-16T14:38:11.786Z,4.20
2018-05-16T14:40:41.004Z,4.20
2018-05-16T14:43:10.191Z,4.70
2018-05-16T14:45:39.409Z,4.97
2018-05-16T14:48:08.594Z,4.53
2018-05-16T14:50:38.026Z,4.00
2018-05-16T14:53:07.221Z,5.40
2018-05-16T14:55:36.545Z,6.00
2018-05-16T14:58:05.666Z,5.00
2018-05-16T15:00:34.866Z,4.50
2018-05-16T15:03:04.093Z,4.63
2018-05-16T15:05:33.306Z,5.40
2018-05-16T15:08:02.532Z,5.03
2018-05-16T15:10:31.928Z,5.83
2018-05-16T15:13:01.127Z,5.93
2018-05-16T15:15:30.378Z,5.30
2018-05-16T15:18:00.102Z,6.33
2018-05-16T15:20:29.972Z,6.57
2018-05-16T15:22:59.188Z,5.00
2018-05-16T15:25:28.408Z,4.17
2018-05-16T15:27:57.606Z,3.50
2018-05-16T15:30:26.839Z,3.57
2018-05-16T15:32:56.051Z,3.20
2018-05-16T15:35:25.344Z,3.47
2018-05-16T15:37:54.558Z,2.73
2018-05-16T15:40:23.790Z,3.50
2018-05-16T15:42:53.013Z,3.13
2018-05-16T15:45:22.190Z,3.00
2018-05-16T15:47:51.381Z,3.00
2018-05-16T15:50:20.589Z,2.43
2018-05-16T15:52:49.807Z,3.10
2018-05-16T15:55:18.977Z,3.30
2018-05-16T15:57:48.406Z,2.30
2018-05-16T16:00:17.622Z,2.43
2018-05-16T16:02:46.829Z,3.27
2018-05-16T16:05:16.097Z,3.10
2018-05-16T16:07:45.306Z,3.23
2018-05-16T16:10:14.494Z,3.10
2018-05-16T16:12:43.717Z,3.40
2018-05-16T16:15:12.921Z,3.40
2018-05-16T16:17:42.130Z,4.20
2018-05-16T16:20:11.313Z,3.70
2018-05-16T16:22:40.546Z,4.10
2018-05-16T16:25:09.760Z,4.17
2018-05-16T16:27:38.940Z,3.87
2018-05-16T16:30:08.140Z,4.47
2018-05-16T16:32:37.337Z,4.67
2018-05-16T16:35:06.547Z,5.27
2018-05-16T16:37:35.932Z,4.87
2018-05-16T16:40:04.955Z,5.30
2018-05-16T16:42:34.159Z,4.90
2018-05-16T16:45:03.612Z,5.40
2018-05-16T16:47:32.810Z,5.90
2018-05-16T16:50:02.143Z,5.13
2018-05-16T16:52:31.384Z,4.80
2018-05-16T16:55:00.609Z,5.93
2018-05-16T16:57:30.156Z,4.17
2018-05-16T16:59:59.433Z,5.20
2018-05-16T17:02:28.649Z,3.90
2018-05-16T17:04:57.999Z,4.70
2018-05-16T17:07:27.264Z,4.43
2018-05-16T17:09:56.446Z,5.40
2018-05-16T17:12:25.647Z,4.13
2018-05-16T17:14:54.892Z,4.40
2018-05-16T17:17:24.111Z,4.00
2018-05-16T17:19:53.318Z,3.90
2018-05-16T17:22:22.496Z,3.77
2018-05-16T17:24:51.712Z,3.60
2018-05-16T17:27:20.946Z,4.30
2018-05-16T17:29:50.164Z,3.50
2018-05-16T17:32:19.397Z,3.80
2018-05-16T17:34:48.616Z,3.60
2018-05-16T17:37:17.819Z,5.37
2018-05-16T17:39:47.091Z,5.97
2018-05-16T17:42:16.291Z,5.27
2018-05-16T17:44:45.553Z,4.73
2018-05-16T17:47:14.769Z,4.53
2018-05-16T17:49:44.087Z,4.00
2018-05-16T17:52:13.275Z,4.00
2018-05-16T17:54:42.590Z,3.20
2018-05-16T17:57:11.814Z,3.83
2018-05-16T17:59:41.034Z,3.30
2018-05-16T18:02:10.283Z,4.20
2018-05-16T18:04:39.488Z,3.53
2018-05-16T18:07:08.686Z,3.47
2018-05-16T18:09:37.907Z,4.33
2018-05-16T18:12:07.091Z,4.43
2018-05-16T18:14:53.127Z,4.23
2018-05-16T18:17:27.235Z,4.23
2018-05-16T18:19:56.580Z,4.80
2018-05-16T18:22:25.765Z,4.43
2018-05-16T18:24:54.981Z,5.57
2018-05-16T18:27:24.160Z,5.03
2018-05-16T18:29:53.641Z,5.30
2018-05-16T18:32:23.533Z,5.40
2018-05-16T18:34:53.574Z,5.40
2018-05-16T18:37:22.822Z,6.30
2018-05-16T18:39:52.028Z,5.67
2018-05-16T18:42:21.339Z,5.10
2018-05-16T18:44:50.550Z,5.70
2018-05-16T18:47:19.815Z,6.90
2018-05-16T18:49:49.010Z,6.60
2018-05-16T18:52:18.247Z,6.93
2018-05-16T18:54:47.479Z,6.43
2018-05-16T18:57:16.708Z,7.43
2018-05-16T18:59:45.900Z,6.57
2018-05-16T19:02:15.103Z,5.87
2018-05-16T19:04:44.295Z,6.20
2018-05-16T19:07:13.512Z,6.30
2018-05-16T19:09:42.751Z,6.70
2018-05-16T19:12:11.967Z,6.13
2018-05-16T19:14:41.151Z,6.23
2018-05-16T19:17:10.472Z,6.10
2018-05-16T19:19:39.645Z,7.07
2018-05-16T19:22:08.874Z,5.83
2018-05-16T19:24:38.269Z,6.53
2018-05-16T19:27:07.508Z,6.10
2018-05-16T19:29:36.680Z,6.10
2018-05-16T19:32:05.905Z,6.83
2018-05-16T19:34:35.169Z,6.40
2018-05-16T19:37:04.399Z,6.77
2018-05-16T19:39:33.652Z,6.43
2018-05-16T19:42:03.162Z,7.23
2018-05-16T19:44:32.390Z,5.90
2018-05-16T19:47:02.049Z,7.50
2018-05-16T19:49:31.263Z,6.70
2018-05-16T19:52:00.462Z,7.90
2018-05-16T19:54:29.674Z,6.80
2018-05-16T19:56:58.867Z,7.07
2018-05-16T19:59:28.294Z,7.10
2018-05-16T20:01:57.471Z,8.33
2018-05-16T20:04:26.700Z,6.57
2018-05-16T20:06:56.109Z,7.47
2018-05-16T20:09:25.335Z,6.60
2018-05-16T20:11:54.527Z,6.93
2018-05-16T20:14:23.736Z,7.97
2018-05-16T20:16:53.073Z,6.40
2018-05-16T20:19:22.297Z,6.73
2018-05-16T20:21:51.965Z,7.10
2018-05-16T20:24:21.158Z,7.17
2018-05-16T20:26:50.363Z,7.50
2018-05-16T20:29:19.664Z,7.90
2018-05-16T20:31:48.915Z,9.90
2018-05-16T20:34:18.115Z,7.90
2018-05-16T20:36:47.343Z,8.40
2018-05-16T20:39:16.605Z,7.10
2018-05-16T20:41:45.856Z,7.13
2018-05-16T20:44:15.123Z,7.30
2018-05-16T20:46:44.456Z,7.47
2018-05-16T20:49:13.755Z,7.60
2018-05-16T20:51:42.983Z,8.37
2018-05-16T20:54:12.196Z,9.30
2018-05-16T20:56:41.720Z,8.80
2018-05-16T20:59:10.899Z,9.60
2018-05-16T21:01:40.153Z,9.00
2018-05-16T21:04:09.451Z,9.10
2018-05-16T21:06:38.697Z,11.13
2018-05-16T21:09:08.002Z,9.30
2018-05-16T21:11:37.166Z,8.03
2018-05-16T21:14:06.361Z,8.50
2018-05-16T21:16:35.547Z,8.73
2018-05-16T21:19:04.841Z,9.17
2018-05-16T21:21:34.075Z,10.07
2018-05-16T21:24:03.266Z,8.63
2018-05-16T21:26:32.475Z,10.43
2018-05-16T21:29:01.701Z,10.63
2018-05-16T21:31:30.894Z,9.50
2018-05-16T21:34:00.114Z,9.03
2018-05-16T21:36:29.323Z,9.90
2018-05-16T21:38:58.543Z,11.30
2018-05-16T21:41:27.742Z,11.53
2018-05-16T21:43:56.961Z,11.40
2018-05-16T21:46:26.184Z,11.07
2018-05-16T21:48:55.419Z,10.50
2018-05-16T21:51:24.617Z,9.17
2018-05-16T21:53:53.851Z,11.23
2018-05-16T21:56:23.047Z,11.63
2018-05-16T21:58:52.268Z,11.17
2018-05-16T22:01:21.468Z,10.20
2018-05-16T22:03:50.696Z,11.27
2018-05-16T22:06:19.884Z,10.13
2018-05-16T22:08:49.106Z,11.20
2018-05-16T22:11:18.305Z,10.83
2018-05-16T22:13:47.603Z,10.13
2018-05-16T22:16:16.903Z,11.30
2018-05-16T22:18:46.123Z,12.10
2018-05-16T22:21:15.333Z,11.90
2018-05-16T22:23:44.524Z,11.50
2018-05-16T22:26:14.288Z,11.17
2018-05-16T22:28:43.488Z,11.70
2018-05-16T22:31:18.628Z,13.23
2018-05-16T22:33:53.702Z,12.23
2018-05-16T22:36:28.766Z,13.83
2018-05-16T22:39:03.906Z,12.87
2018-05-16T22:41:39.549Z,12.63
2018-05-16T22:44:12.411Z,14.27
2018-05-16T22:46:41.663Z,14.63
2018-05-16T22:49:10.868Z,15.30
2018-05-16T22:51:42.033Z,14.13
2018-05-16T22:54:11.241Z,13.00
2018-05-16T22:56:40.462Z,12.77
2018-05-16T22:59:09.669Z,14.50
2018-05-16T23:01:38.899Z,13.90
2018-05-16T23:04:08.118Z,13.40
2018-05-16T23:06:37.335Z,12.13
2018-05-16T23:09:06.552Z,11.60
2018-05-16T23:11:35.784Z,12.97
2018-05-16T23:14:04.992Z,13.20
2018-05-16T23:16:34.224Z,11.97
2018-05-16T23:19:03.510Z,11.80
2018-05-16T23:21:32.705Z,13.60
2018-05-16T23:24:01.946Z,11.30
2018-05-16T23:26:31.158Z,11.97
2018-05-16T23:29:00.378Z,12.40
2018-05-16T23:31:29.670Z,12.23
2018-05-16T23:33:58.885Z,12.70
2018-05-16T23:36:28.087Z,11.50
2018-05-16T23:38:57.311Z,12.67
2018-05-16T23:41:26.527Z,10.90
2018-05-16T23:43:55.759Z,10.93
2018-05-16T23:46:24.957Z,11.27
2018-05-16T23:48:54.283Z,10.80
2018-05-16T23:51:23.590Z,10.63
2018-05-16T23:53:52.816Z,11.20
2018-05-16T23:56:22.017Z,12.50
2018-05-16T23:58:51.245Z,11.40
